Time;durP1;ratioP1;P1;durP2;ratioP2;P2;SDS_P1;SDS_P2;PMS_P1;PMS_P2;Temp;Humidity;BMP_temperature;BMP_pressure;BME280_temperature;BME280_humidity;BME280_pressure;Samples;Min_cycle;Max_cycle;Signal;HPM_P1;HPM_P2
2022/08/12 00:45:09;;;;;;;1.20;1.20;;;24.90;65.10;;;;;;6212802;22;43224;-61
2022/08/12 00:47:38;;;;;;;1.30;1.30;;;24.90;65.10;;;;;;6213292;22;43295;-61
2022/08/12 00:50:07;;;;;;;1.05;1.05;;;24.90;65.00;;;;;;6212167;22;43567;-61
2022/08/12 00:52:35;;;;;;;1.30;1.30;;;24.90;65.00;;;;;;6212685;22;43944;-62
2022/08/12 00:55:04;;;;;;;1.27;1.20;;;24.90;65.00;;;;;;6213486;22;43187;-61
2022/08/12 00:57:35;;;;;;;1.13;1.08;;;24.90;65.00;;;;;;6212429;22;43343;-62
2022/08/12 01:00:08;;;;;;;1.20;1.20;;;24.90;65.00;;;;;;6186683;22;44938;-61
2022/08/12 01:02:39;;;;;;;1.10;1.10;;;24.90;65.00;;;;;;6213026;22;43265;-61
2022/08/12 01:13:33;;;;;;;1.30;1.20;;;24.90;65.00;;;;;;6212721;22;43737;-61
2022/08/12 01:16:04;;;;;;;1.95;1.20;;;24.90;65.00;;;;;;6213152;22;43228;-61
2022/08/12 01:18:33;;;;;;;1.10;1.10;;;24.90;65.00;;;;;;6211852;22;43276;-62
2022/08/12 01:21:19;;;;;;;1.20;1.20;;;24.90;64.90;;;;;;6213009;22;44684;-61
2022/08/12 01:23:49;;;;;;;1.23;1.23;;;24.80;64.80;;;;;;6212642;22;43279;-61
2022/08/12 01:26:22;;;;;;;1.30;1.20;;;24.80;64.80;;;;;;6212186;22;43241;-61
2022/08/12 01:28:54;;;;;;;1.40;1.30;;;24.80;64.90;;;;;;6185723;22;43316;-61
2022/08/12 01:31:26;;;;;;;1.10;1.00;;;24.80;64.90;;;;;;6212633;22;44628;-61
2022/08/12 01:33:58;;;;;;;1.20;1.20;;;24.80;64.90;;;;;;6212504;22;43270;-61
2022/08/12 01:36:29;;;;;;;1.30;1.30;;;24.80;64.90;;;;;;6212938;22;43296;-61
2022/08/12 01:38:58;;;;;;;1.10;1.10;;;24.80;64.90;;;;;;6212831;22;43300;-61
2022/08/12 01:41:32;;;;;;;1.50;1.40;;;24.80;64.90;;;;;;6212595;22;44897;-61
2022/08/12 01:44:01;;;;;;;1.42;1.33;;;24.80;64.80;;;;;;6212902;22;43932;-61
2022/08/12 01:46:39;;;;;;;1.45;1.35;;;24.80;64.90;;;;;;6211903;22;43285;-61
2022/08/12 01:49:39;;;;;;;1.02;1.02;;;24.80;64.90;;;;;;6186173;22;43304;-61
2022/08/12 01:52:08;;;;;;;1.15;1.15;;;24.80;64.80;;;;;;6213077;22;45002;-62
2022/08/12 01:54:50;;;;;;;1.55;1.45;;;24.80;64.80;;;;;;6211787;22;43240;-61
2022/08/12 01:57:23;;;;;;;1.20;1.20;;;24.80;64.80;;;;;;6212978;22;43758;-61
2022/08/12 02:00:14;;;;;;;1.00;1.00;;;24.80;64.80;;;;;;6211759;22;43293;-62
2022/08/12 02:03:12;;;;;;;1.50;1.27;;;24.80;64.80;;;;;;6212303;22;43990;-61
2022/08/12 02:11:55;;;;;;;1.23;1.17;;;24.70;64.90;;;;;;6212608;22;43225;-61
2022/08/12 02:15:11;;;;;;;1.20;1.20;;;24.70;64.80;;;;;;6211248;22;44842;-61
2022/08/12 02:17:59;;;;;;;1.35;1.25;;;24.70;64.80;;;;;;6060956;23;43630;-61
2022/08/12 02:20:37;;;;;;;1.20;1.20;;;24.70;64.80;;;;;;6207262;22;43381;-61
2022/08/12 02:23:26;;;;;;;1.45;1.23;;;24.70;64.80;;;;;;6212614;22;43305;-61
2022/08/12 02:26:08;;;;;;;1.20;1.20;;;24.70;64.80;;;;;;6212670;22;44664;-61
2022/08/12 02:28:38;;;;;;;1.10;1.10;;;24.70;64.80;;;;;;6211358;22;43786;-60
2022/08/12 02:31:07;;;;;;;1.10;1.10;;;24.70;64.80;;;;;;6213728;22;43368;-61
2022/08/12 02:33:36;;;;;;;0.90;0.90;;;24.70;64.70;;;;;;6213601;22;43236;-61
2022/08/12 02:36:05;;;;;;;1.20;1.20;;;24.70;64.80;;;;;;6212638;22;44900;-61
2022/08/12 02:38:33;;;;;;;1.48;1.38;;;24.70;64.80;;;;;;6213471;22;43312;-61
2022/08/12 02:41:02;;;;;;;1.20;1.20;;;24.70;64.70;;;;;;6213975;22;43245;-61
2022/08/12 02:43:37;;;;;;;1.15;1.10;;;24.70;64.70;;;;;;6212855;22;43269;-61
2022/08/12 02:46:10;;;;;;;0.95;0.95;;;24.70;64.60;;;;;;6212486;22;44696;-61
2022/08/12 02:48:46;;;;;;;1.10;1.10;;;24.70;64.60;;;;;;6213251;22;43945;-61
2022/08/12 02:51:30;;;;;;;1.40;1.30;;;24.70;64.70;;;;;;6213307;22;43231;-61
2022/08/12 02:54:03;;;;;;;1.20;1.20;;;24.70;64.70;;;;;;6213755;22;43282;-61
2022/08/12 02:56:36;;;;;;;1.60;1.50;;;24.70;64.60;;;;;;6212659;22;44893;-61
2022/08/12 02:59:10;;;;;;;1.30;1.20;;;24.70;64.70;;;;;;6213519;22;44059;-61
2022/08/12 03:01:46;;;;;;;0.93;0.93;;;24.70;64.60;;;;;;6213856;22;43348;-61
2022/08/12 03:04:28;;;;;;;1.35;1.35;;;24.60;64.60;;;;;;6212779;22;43439;-61
2022/08/12 03:07:13;;;;;;;1.23;1.23;;;24.60;64.60;;;;;;6213927;22;44670;-61
2022/08/12 03:09:49;;;;;;;1.08;1.08;;;24.60;64.60;;;;;;6213504;22;43728;-61
2022/08/12 03:12:36;;;;;;;1.52;1.42;;;24.60;64.60;;;;;;6213527;22;43387;-61
2022/08/12 03:15:19;;;;;;;1.17;1.17;;;24.60;64.60;;;;;;6213203;22;43593;-61
2022/08/12 03:18:00;;;;;;;1.50;1.40;;;24.60;64.60;;;;;;6212616;22;43751;-62
2022/08/12 03:20:48;;;;;;;1.40;1.38;;;24.60;64.60;;;;;;6213425;22;43242;-61
2022/08/12 03:23:15;;;;;;;1.30;1.20;;;24.60;64.60;;;;;;6213620;22;43291;-61
2022/08/12 03:25:57;;;;;;;1.30;1.20;;;24.60;64.60;;;;;;6212979;22;43301;-61
2022/08/12 03:31:13;;;;;;;1.42;1.33;;;24.60;64.60;;;;;;6212373;22;43630;-61
2022/08/12 03:33:44;;;;;;;1.40;1.33;;;24.50;64.60;;;;;;6213580;22;43222;-61
2022/08/12 03:36:33;;;;;;;1.48;1.38;;;24.60;64.70;;;;;;6213255;22;43223;-61
2022/08/12 03:41:53;;;;;;;1.38;1.20;;;24.50;64.60;;;;;;6213063;22;43760;-61
2022/08/12 04:01:28;;;;;;;1.00;1.00;;;24.50;64.50;;;;;;6210703;22;44186;-61
2022/08/12 04:03:56;;;;;;;1.40;1.30;;;24.50;64.60;;;;;;6213128;22;43906;-61
2022/08/12 04:06:27;;;;;;;1.10;1.10;;;24.50;64.60;;;;;;6212220;22;43228;-61
2022/08/12 04:09:04;;;;;;;1.20;1.20;;;24.50;64.50;;;;;;6213568;22;43359;-61
2022/08/12 04:14:31;;;;;;;1.10;1.10;;;24.50;64.50;;;;;;6211574;22;43819;-61
2022/08/12 04:16:59;;;;;;;1.30;1.30;;;24.50;64.50;;;;;;6211971;22;43248;-62
2022/08/12 04:19:28;;;;;;;1.27;1.27;;;24.50;64.50;;;;;;6213226;22;43396;-61
2022/08/12 04:21:56;;;;;;;1.10;1.10;;;24.50;64.60;;;;;;6212622;22;44904;-62
2022/08/12 04:24:35;;;;;;;1.15;1.15;;;24.50;65.20;;;;;;6212832;22;43932;-62
2022/08/12 04:27:10;;;;;;;1.38;1.25;;;24.50;64.50;;;;;;6213331;22;43279;-62
2022/08/12 04:29:39;;;;;;;1.25;1.20;;;24.40;64.40;;;;;;6212259;22;43591;-62
2022/08/12 04:32:26;;;;;;;1.30;1.30;;;24.40;64.40;;;;;;6212844;22;44731;-62
2022/08/12 04:34:54;;;;;;;1.20;1.20;;;24.50;64.50;;;;;;6212285;22;43898;-62
2022/08/12 04:37:22;;;;;;;1.40;1.30;;;24.40;64.50;;;;;;6213037;22;43752;-62
2022/08/12 04:39:51;;;;;;;1.50;1.40;;;24.40;64.40;;;;;;6213151;22;43271;-62
2022/08/12 04:42:19;;;;;;;1.00;1.00;;;24.40;64.40;;;;;;6212125;22;45084;-62
2022/08/12 04:44:47;;;;;;;1.27;1.25;;;24.40;64.50;;;;;;6212619;22;43887;-62
2022/08/12 04:47:15;;;;;;;1.13;1.10;;;24.40;64.50;;;;;;6213326;22;43252;-62
2022/08/12 04:49:44;;;;;;;1.30;1.20;;;24.40;64.50;;;;;;6212264;22;43365;-61
2022/08/12 04:52:13;;;;;;;1.42;1.33;;;24.40;64.40;;;;;;6212675;22;43981;-62
2022/08/12 04:54:42;;;;;;;2.40;1.40;;;24.40;64.50;;;;;;6186003;22;43934;-62
2022/08/12 04:57:10;;;;;;;1.33;1.23;;;24.40;64.50;;;;;;6212213;22;43300;-62
2022/08/12 04:59:38;;;;;;;1.08;1.08;;;24.40;64.40;;;;;;6213536;22;43697;-62
2022/08/12 05:02:19;;;;;;;1.20;1.20;;;24.40;64.40;;;;;;6212990;22;44957;-62
2022/08/12 05:04:50;;;;;;;1.35;1.30;;;24.30;64.40;;;;;;6211925;22;43714;-62
2022/08/12 05:07:19;;;;;;;1.40;1.30;;;24.30;64.40;;;;;;6212984;22;43272;-62
2022/08/12 05:09:48;;;;;;;1.25;1.25;;;24.30;64.40;;;;;;6212252;22;43399;-62
2022/08/12 05:12:41;;;;;;;1.30;1.30;;;24.30;64.40;;;;;;6212718;22;44861;-62
2022/08/12 05:15:12;;;;;;;;;;;24.30;64.40;;;;;;6213017;22;43871;-62
2022/08/12 05:17:56;;;;;;;1.45;1.40;;;24.30;64.40;;;;;;6212809;22;43261;-62
2022/08/12 05:20:29;;;;;;;1.40;1.30;;;24.30;64.60;;;;;;6212951;22;43276;-62
2022/08/12 05:23:08;;;;;;;1.50;1.40;;;24.30;64.50;;;;;;6213171;22;43848;-62
2022/08/12 05:25:41;;;;;;;1.50;1.40;;;24.30;64.50;;;;;;6211745;22;43657;-62
2022/08/12 05:28:11;;;;;;;1.23;1.23;;;24.30;64.50;;;;;;6213034;22;43224;-62
2022/08/12 05:30:41;;;;;;;3.03;1.35;;;24.30;64.50;;;;;;6211865;22;43441;-62
2022/08/12 05:33:10;;;;;;;1.35;1.30;;;24.30;64.50;;;;;;6213149;22;44911;-62
2022/08/12 05:35:41;;;;;;;1.52;1.42;;;24.30;64.60;;;;;;6212474;22;43956;-62
2022/08/12 05:40:57;;;;;;;1.30;1.30;;;24.30;64.50;;;;;;6211623;22;43521;-61
2022/08/12 05:43:24;;;;;;;1.50;1.50;;;24.20;64.50;;;;;;6212536;22;44936;-62
2022/08/12 05:45:52;;;;;;;2.13;1.35;;;24.20;64.40;;;;;;6211604;22;43272;-62
2022/08/12 05:48:20;;;;;;;1.48;1.33;;;24.20;64.50;;;;;;6212832;22;43284;-62
2022/08/12 05:50:48;;;;;;;1.35;1.27;;;24.30;64.60;;;;;;6212769;22;43319;-62
2022/08/12 05:53:15;;;;;;;1.40;1.40;;;24.20;64.40;;;;;;6211728;22;44756;-61
2022/08/12 05:55:43;;;;;;;1.30;1.30;;;24.30;64.50;;;;;;6212259;22;43310;-62
2022/08/12 05:58:10;;;;;;;1.52;1.42;;;24.20;64.40;;;;;;6212706;22;43264;-61
2022/08/12 06:00:38;;;;;;;1.42;1.40;;;24.20;64.60;;;;;;6211690;22;43246;-62
2022/08/12 06:03:06;;;;;;;1.42;1.40;;;24.20;64.60;;;;;;6212471;22;43870;-62
2022/08/12 06:05:37;;;;;;;1.45;1.35;;;24.20;65.20;;;;;;6212831;22;43918;-62
2022/08/12 06:08:23;;;;;;;1.55;1.45;;;24.20;64.60;;;;;;6214003;22;43185;-61
2022/08/12 06:10:51;;;;;;;1.55;1.45;;;24.20;64.60;;;;;;6213868;22;43268;-62
2022/08/12 06:13:18;;;;;;;1.42;1.40;;;24.20;64.60;;;;;;6213182;22;44922;-62
2022/08/12 06:16:06;;;;;;;1.58;1.40;;;24.20;64.90;;;;;;6213524;22;43320;-62
2022/08/12 06:18:38;;;;;;;1.15;1.15;;;24.20;64.70;;;;;;6213703;22;43243;-61
2022/08/12 06:21:07;;;;;;;1.60;1.50;;;24.20;64.70;;;;;;6212911;22;43301;-61
2022/08/12 06:23:36;;;;;;;1.50;1.40;;;24.20;64.70;;;;;;6213845;22;44807;-61
2022/08/12 06:26:11;;;;;;;1.60;1.50;;;24.20;64.70;;;;;;6186096;22;43243;-61
2022/08/12 06:28:40;;;;;;;1.30;1.30;;;24.20;64.60;;;;;;6212640;22;43279;-60
2022/08/12 06:31:10;;;;;;;1.33;1.33;;;24.20;64.70;;;;;;6213855;22;43269;-61
2022/08/12 06:33:54;;;;;;;1.38;1.38;;;24.20;64.60;;;;;;6213385;22;44934;-61
2022/08/12 06:36:41;;;;;;;1.20;1.20;;;24.20;64.60;;;;;;6213066;22;43751;-61
2022/08/12 06:39:11;;;;;;;1.55;1.45;;;24.20;64.60;;;;;;6213469;22;43312;-60
2022/08/12 06:44:49;;;;;;;1.52;1.42;;;24.10;64.60;;;;;;6213738;22;44654;-61
2022/08/12 06:47:18;;;;;;;1.63;1.52;;;24.10;64.60;;;;;;6213933;22;43232;-61
2022/08/12 06:49:48;;;;;;;1.63;1.52;;;24.20;64.60;;;;;;6212973;22;43264;-62
2022/08/12 06:52:16;;;;;;;1.52;1.42;;;24.20;64.60;;;;;;6213925;22;43372;-61
2022/08/12 06:54:44;;;;;;;1.60;1.50;;;24.10;64.60;;;;;;6213571;22;44857;-61
2022/08/12 06:57:12;;;;;;;1.42;1.33;;;24.10;64.60;;;;;;6213327;22;43277;-62
2022/08/12 06:59:59;;;;;;;1.52;1.42;;;24.10;64.60;;;;;;6214518;22;43226;-61
2022/08/12 07:02:27;;;;;;;1.30;1.30;;;24.10;64.60;;;;;;6212927;22;43343;-62
2022/08/12 07:04:59;;;;;;;1.50;1.40;;;24.10;64.50;;;;;;6187906;22;43886;-62
2022/08/12 07:07:27;;;;;;;1.50;1.50;;;24.10;64.50;;;;;;6213445;22;43919;-62
2022/08/12 07:09:54;;;;;;;2.35;1.50;;;24.10;64.50;;;;;;6213298;22;43356;-62
2022/08/12 07:12:34;;;;;;;1.67;1.58;;;24.10;64.50;;;;;;6213478;22;43330;-62
2022/08/12 07:15:02;;;;;;;1.80;1.70;;;24.10;64.50;;;;;;6213239;22;44992;-62
2022/08/12 07:17:35;;;;;;;1.50;1.50;;;24.10;64.60;;;;;;6212549;22;43234;-61
2022/08/12 07:20:11;;;;;;;1.77;1.67;;;24.10;65.20;;;;;;6213439;22;43225;-62
2022/08/12 07:23:03;;;;;;;1.95;1.85;;;24.10;64.50;;;;;;6213843;22;43275;-61
2022/08/12 07:25:36;;;;;;;1.95;1.75;;;24.10;64.50;;;;;;6212558;22;43726;-62
2022/08/12 07:28:16;;;;;;;1.70;1.60;;;24.10;64.60;;;;;;6213417;22;43685;-61
2022/08/12 07:30:47;;;;;;;1.73;1.60;;;24.10;64.60;;;;;;6212590;22;43256;-61
2022/08/12 07:33:15;;;;;;;;;;;24.10;64.50;;;;;;6214176;22;43782;-62
2022/08/12 07:35:44;;;;;;;1.90;1.80;;;24.10;64.50;;;;;;6212874;22;44648;-62
2022/08/12 07:38:29;;;;;;;1.50;1.40;;;24.10;64.60;;;;;;6212510;22;43948;-62
2022/08/12 07:41:01;;;;;;;1.80;1.60;;;24.10;64.60;;;;;;6213910;22;43281;-62
2022/08/12 07:43:31;;;;;;;1.90;1.80;;;24.10;64.50;;;;;;6213507;22;43265;-62
2022/08/12 07:45:59;;;;;;;1.70;1.60;;;24.10;64.50;;;;;;6212156;22;43868;-62
2022/08/12 07:48:33;;;;;;;1.55;1.45;;;24.10;64.50;;;;;;6213346;22;43623;-62
2022/08/12 07:51:00;;;;;;;2.22;1.90;;;24.10;64.50;;;;;;6213535;22;43260;-61
2022/08/12 07:53:28;;;;;;;1.90;1.77;;;24.10;64.60;;;;;;6212979;22;43374;-62
2022/08/12 07:55:55;;;;;;;1.83;1.70;;;24.10;64.50;;;;;;6213168;22;44629;-62
2022/08/12 07:58:24;;;;;;;1.67;1.58;;;24.10;64.50;;;;;;6212204;22;43682;-62
2022/08/12 08:00:56;;;;;;;1.63;1.52;;;24.10;64.40;;;;;;6186179;22;43324;-62
2022/08/12 08:03:24;;;;;;;1.50;1.40;;;24.10;64.40;;;;;;6213327;22;43349;-61
2022/08/12 08:05:52;;;;;;;1.75;1.65;;;24.10;64.50;;;;;;6212121;22;44652;-62
2022/08/12 08:08:27;;;;;;;1.60;1.50;;;24.20;64.60;;;;;;6213258;22;43891;-62
2022/08/12 08:13:45;;;;;;;1.73;1.63;;;24.20;64.40;;;;;;6212453;22;43321;-62
2022/08/12 08:16:14;;;;;;;1.75;1.65;;;24.20;64.40;;;;;;6212858;22;44841;-62
2022/08/12 08:18:42;;;;;;;1.70;1.60;;;24.20;64.40;;;;;;6212930;22;43641;-62
2022/08/12 08:21:09;;;;;;;1.50;1.40;;;24.20;64.40;;;;;;6212201;22;43308;-62
2022/08/12 08:26:31;;;;;;;1.67;1.58;;;24.20;64.40;;;;;;6211303;22;44046;-61
2022/08/12 08:29:01;;;;;;;1.48;1.42;;;24.20;64.60;;;;;;6213228;22;43984;-60
2022/08/12 08:31:30;;;;;;;2.08;1.60;;;24.20;64.50;;;;;;6213187;22;43253;-61
2022/08/12 08:33:57;;;;;;;1.63;1.52;;;24.30;65.60;;;;;;6213222;22;43329;-62
2022/08/12 08:36:45;;;;;;;1.92;1.48;;;24.20;64.60;;;;;;6212690;22;43763;-62
2022/08/12 08:39:23;;;;;;;1.50;1.40;;;24.20;64.50;;;;;;6212862;22;43256;-60
2022/08/12 08:44:45;;;;;;;1.55;1.45;;;24.30;64.60;;;;;;6212973;22;43319;-62
2022/08/12 08:47:16;;;;;;;;;;;24.20;64.60;;;;;;6213280;22;44602;-61
2022/08/12 08:49:44;;;;;;;1.58;1.48;;;24.20;64.60;;;;;;6212036;22;43640;-61
2022/08/12 08:52:11;;;;;;;1.65;1.55;;;24.20;64.60;;;;;;6210930;22;43280;-62
2022/08/12 08:54:59;;;;;;;2.10;1.90;;;24.20;64.60;;;;;;6211915;22;43291;-61
2022/08/12 08:57:26;;;;;;;1.60;1.50;;;24.20;64.60;;;;;;6212881;22;44273;-62
2022/08/12 09:00:19;;;;;;;1.70;1.50;;;24.30;64.60;;;;;;6212413;22;44035;-61
2022/08/12 09:02:48;;;;;;;1.60;1.50;;;24.30;64.60;;;;;;6212301;22;43228;-62
2022/08/12 09:05:27;;;;;;;1.40;1.30;;;24.30;64.50;;;;;;6212809;22;43326;-62
2022/08/12 09:08:14;;;;;;;1.60;1.50;;;24.30;64.60;;;;;;6190405;22;44677;-62
2022/08/12 09:13:26;;;;;;;1.73;1.63;;;24.30;64.50;;;;;;6210239;22;43250;-61
2022/08/12 09:14:09;;;;;;;1.83;1.73;;;24.30;64.50;;;;;;6212648;22;43280;-62
2022/08/12 09:16:45;;;;;;;1.60;1.50;;;24.30;64.60;;;;;;6211843;22;43380;-62
2022/08/12 09:19:17;;;;;;;2.08;1.88;;;24.30;64.60;;;;;;6212520;22;44916;-62
2022/08/12 09:21:56;;;;;;;1.90;1.80;;;24.40;64.60;;;;;;6211677;22;43959;-62
2022/08/12 09:24:26;;;;;;;1.70;1.60;;;24.40;64.60;;;;;;6212016;22;43247;-62
2022/08/12 09:26:56;;;;;;;1.50;1.40;;;24.40;64.60;;;;;;6212901;22;43790;-61
2022/08/12 09:29:25;;;;;;;1.70;1.60;;;24.40;64.60;;;;;;6212203;22;44899;-61
2022/08/12 09:32:12;;;;;;;1.65;1.50;;;24.40;64.60;;;;;;6212539;22;43855;-61
2022/08/12 09:35:00;;;;;;;1.63;1.52;;;24.40;64.60;;;;;;6212989;22;43233;-62
2022/08/12 09:37:28;;;;;;;1.70;1.60;;;24.40;64.50;;;;;;6211874;22;43267;-62
2022/08/12 09:40:17;;;;;;;1.90;1.80;;;24.40;64.50;;;;;;6212484;22;44612;-62
2022/08/12 09:45:52;;;;;;;3.50;1.80;;;24.50;64.60;;;;;;6211659;22;43284;-62
2022/08/12 09:48:39;;;;;;;1.60;1.50;;;24.50;64.60;;;;;;6212733;22;43272;-62
2022/08/12 09:51:22;;;;;;;1.80;1.70;;;24.50;64.60;;;;;;6211214;22;44737;-62
2022/08/12 09:53:49;;;;;;;1.75;1.63;;;24.50;64.60;;;;;;6212400;22;43277;-62
2022/08/12 09:56:41;;;;;;;2.05;1.80;;;24.50;64.60;;;;;;6212229;22;43165;-62
2022/08/12 09:59:29;;;;;;;1.85;1.75;;;24.50;64.60;;;;;;6211459;22;43735;-60
2022/08/12 10:02:16;;;;;;;1.70;1.60;;;24.50;64.60;;;;;;6212526;22;43763;-62
2022/08/12 10:05:05;;;;;;;2.45;1.63;;;24.60;64.50;;;;;;6211218;22;43697;-62
2022/08/12 10:07:40;;;;;;;1.67;1.55;;;24.60;64.70;;;;;;6212720;22;43280;-62
2022/08/12 10:10:10;;;;;;;1.92;1.80;;;24.60;64.80;;;;;;6212229;22;43316;-62
2022/08/12 10:16:02;;;;;;;4.38;1.95;;;24.60;64.70;;;;;;6212246;22;43244;-62
2022/08/12 10:18:36;;;;;;;1.88;1.77;;;24.70;64.80;;;;;;6212248;22;43280;-61
2022/08/12 10:21:30;;;;;;;2.42;1.75;;;24.70;64.70;;;;;;6211501;22;43335;-62
2022/08/12 10:24:17;;;;;;;2.17;1.88;;;24.70;64.80;;;;;;6211906;22;44879;-62
2022/08/12 10:29:38;;;;;;;2.30;1.80;;;24.70;64.80;;;;;;6212353;22;43354;-62
2022/08/12 10:32:25;;;;;;;1.95;1.80;;;24.70;64.70;;;;;;6212204;22;43330;-62
2022/08/12 10:35:15;;;;;;;1.58;1.48;;;24.70;64.80;;;;;;6211284;22;44652;-62
2022/08/12 10:37:45;;;;;;;2.10;1.90;;;24.80;64.80;;;;;;6212080;22;43988;-61
2022/08/12 10:43:39;;;;;;;2.60;1.95;;;24.80;64.80;;;;;;6211059;22;43860;-61
2022/08/12 10:46:23;;;;;;;2.10;1.90;;;24.80;64.80;;;;;;6210647;22;44064;-62
2022/08/12 10:48:59;;;;;;;1.92;1.73;;;24.90;64.90;;;;;;6210574;22;43780;-62
2022/08/12 10:51:50;;;;;;;2.40;1.63;;;24.90;64.80;;;;;;6212184;22;43217;-61
2022/08/12 10:54:40;;;;;;;1.60;1.50;;;24.90;64.80;;;;;;6211940;22;43279;-61
2022/08/12 10:57:09;;;;;;;1.88;1.77;;;24.90;64.90;;;;;;6211224;22;44892;-61
2022/08/12 10:59:58;;;;;;;1.70;1.60;;;25.00;64.80;;;;;;6212759;22;43843;-62
2022/08/12 11:02:53;;;;;;;2.97;1.88;;;25.00;64.90;;;;;;6212029;22;43458;-61
2022/08/12 11:05:40;;;;;;;2.08;1.88;;;25.00;64.90;;;;;;6211420;22;43222;-61
2022/08/12 11:08:28;;;;;;;2.80;1.88;;;25.00;64.90;;;;;;6211563;22;43993;-61
2022/08/12 11:11:09;;;;;;;2.15;1.73;;;25.10;64.90;;;;;;6212646;22;43983;-62
2022/08/12 11:13:40;;;;;;;2.20;1.73;;;25.00;64.90;;;;;;6212781;22;43768;-62
2022/08/12 11:16:16;;;;;;;1.70;1.60;;;25.10;64.90;;;;;;6211186;22;43286;-62
2022/08/12 11:18:49;;;;;;;1.70;1.60;;;25.10;64.90;;;;;;6212507;22;44032;-62
2022/08/12 11:21:23;;;;;;;2.47;1.63;;;25.10;64.70;;;;;;6208559;22;43932;-62
2022/08/12 11:24:10;;;;;;;4.22;1.98;;;25.20;64.90;;;;;;6208375;22;43282;-62
2022/08/12 11:26:59;;;;;;;2.08;1.63;;;25.20;65.00;;;;;;6207296;22;43328;-62
2022/08/12 11:29:28;;;;;;;3.75;1.75;;;25.30;65.10;;;;;;6207732;22;44882;-62
2022/08/12 11:32:16;;;;;;;1.92;1.70;;;25.30;64.90;;;;;;6209043;22;43344;-62
2022/08/12 11:34:43;;;;;;;4.05;1.70;;;25.30;64.70;;;;;;6208797;22;43328;-62
2022/08/12 11:37:21;;;;;;;1.80;1.70;;;25.30;64.70;;;;;;6206980;22;43399;-62
2022/08/12 11:39:55;;;;;;;3.72;1.70;;;25.30;64.60;;;;;;6208917;22;44728;-62
2022/08/12 11:42:36;;;;;;;1.70;1.60;;;25.40;64.90;;;;;;6209721;22;43687;-62
2022/08/12 11:45:13;;;;;;;2.47;1.58;;;25.40;64.80;;;;;;6208023;22;43260;-62
2022/08/12 11:47:43;;;;;;;1.87;1.70;;;25.40;64.80;;;;;;6207917;22;43323;-62
2022/08/12 11:50:11;;;;;;;2.10;1.77;;;25.40;64.80;;;;;;6208205;22;44885;-62
2022/08/12 11:52:50;;;;;;;2.30;1.85;;;25.50;64.90;;;;;;6208106;22;43763;-62
2022/08/12 11:55:24;;;;;;;1.90;1.80;;;25.50;64.70;;;;;;6208252;22;43277;-62
2022/08/12 11:57:55;;;;;;;1.83;1.70;;;25.50;64.70;;;;;;6207581;22;43271;-62
2022/08/12 12:00:43;;;;;;;1.60;1.50;;;25.60;64.80;;;;;;6208477;22;44756;-62
2022/08/12 12:03:30;;;;;;;1.80;1.70;;;25.60;64.70;;;;;;6207637;22;43876;-62
2022/08/12 12:06:14;;;;;;;6.03;2.10;;;25.60;64.60;;;;;;6207170;22;43283;-61
2022/08/12 12:08:44;;;;;;;;;;;25.60;65.10;;;;;;6208944;22;43403;-62
2022/08/12 12:11:19;;;;;;;8.10;2.45;;;25.70;64.80;;;;;;6209765;22;45065;-62
2022/08/12 12:13:47;;;;;;;3.80;2.20;;;25.70;64.80;;;;;;6210886;22;43648;-62
2022/08/12 12:16:36;;;;;;;5.85;1.83;;;25.70;64.80;;;;;;6211313;22;43257;-62
2022/08/12 12:19:07;;;;;;;;;;;25.70;64.80;;;;;;6212095;22;43341;-60
2022/08/12 12:21:38;;;;;;;3.13;2.15;;;25.80;64.80;;;;;;6211153;22;44110;-62
2022/08/12 12:24:18;;;;;;;1.88;1.77;;;25.80;64.80;;;;;;6212658;22;43920;-62
2022/08/12 12:26:52;;;;;;;5.47;2.10;;;25.80;64.70;;;;;;6210018;22;43317;-62
2022/08/12 12:29:28;;;;;;;3.47;1.92;;;25.80;64.70;;;;;;6212097;22;43281;-62
2022/08/12 12:32:16;;;;;;;3.53;2.00;;;25.90;64.70;;;;;;6212137;22;44638;-62
2022/08/12 12:34:45;;;;;;;2.53;1.95;;;25.90;64.70;;;;;;6211651;22;43656;-62
2022/08/12 12:37:33;;;;;;;1.90;1.70;;;25.90;64.60;;;;;;6210669;22;43286;-62
2022/08/12 12:40:23;;;;;;;3.90;1.92;;;26.00;64.80;;;;;;6210407;22;43420;-62
2022/08/12 12:42:58;;;;;;;2.75;2.00;;;26.00;64.90;;;;;;6212598;22;43816;-62
2022/08/12 12:45:33;;;;;;;4.68;2.17;;;26.00;64.80;;;;;;6211485;22;43869;-61
2022/08/12 12:48:06;;;;;;;3.30;2.10;;;26.00;64.60;;;;;;6211847;22;43324;-62
2022/08/12 12:50:39;;;;;;;3.72;1.77;;;26.00;64.60;;;;;;6211894;22;43237;-61
2022/08/12 12:53:21;;;;;;;3.58;2.15;;;26.10;64.60;;;;;;6212195;22;44651;-62
2022/08/12 12:56:19;;;;;;;2.65;1.80;;;26.10;64.60;;;;;;6210595;22;43296;-62
2022/08/12 12:59:02;;;;;;;1.80;1.70;;;26.20;64.60;;;;;;6213236;22;43331;-62
2022/08/12 13:01:30;;;;;;;3.05;1.90;;;26.20;64.60;;;;;;6182208;22;43407;-61
2022/08/12 13:04:07;;;;;;;3.72;1.65;;;26.20;64.60;;;;;;6211979;22;44603;-61
2022/08/12 13:06:40;;;;;;;2.72;1.85;;;26.20;64.60;;;;;;6211916;22;43252;-61
2022/08/12 13:09:11;;;;;;;2.25;1.85;;;26.30;64.70;;;;;;6211478;22;44142;-61
2022/08/12 13:11:39;;;;;;;1.90;1.75;;;26.30;64.60;;;;;;6211351;22;43240;-62
2022/08/12 13:14:12;;;;;;;2.25;1.90;;;26.30;64.60;;;;;;6211631;22;44968;-61
2022/08/12 13:17:00;;;;;;;3.03;1.80;;;26.30;64.60;;;;;;6211362;22;43276;-61
2022/08/12 13:19:35;;;;;;;2.65;1.80;;;26.40;64.60;;;;;;6212120;22;43245;-61
2022/08/12 13:22:19;;;;;;;2.15;1.85;;;26.40;64.60;;;;;;6210956;22;43415;-62
2022/08/12 13:24:53;;;;;;;1.85;1.70;;;26.40;64.50;;;;;;6211476;22;44941;-62
2022/08/12 13:27:28;;;;;;;2.00;1.63;;;26.40;64.50;;;;;;6211970;22;43260;-62
2022/08/12 13:30:08;;;;;;;2.88;2.00;;;26.40;64.50;;;;;;6211021;22;43271;-61
2022/08/12 13:32:38;;;;;;;2.33;1.80;;;26.50;64.60;;;;;;6210942;22;43398;-62
2022/08/12 13:35:07;;;;;;;2.17;1.83;;;26.50;64.50;;;;;;6211720;22;43875;-62
2022/08/12 13:37:56;;;;;;;1.92;1.83;;;26.50;64.60;;;;;;6211692;22;44036;-61
2022/08/12 13:40:30;;;;;;;2.35;2.10;;;26.60;64.80;;;;;;6210946;22;43300;-61
2022/08/12 13:43:00;;;;;;;1.90;1.80;;;26.60;64.70;;;;;;6212310;22;43326;-61
2022/08/12 13:45:30;;;;;;;3.40;2.15;;;26.60;64.80;;;;;;6210749;22;44943;-61
2022/08/12 13:48:00;;;;;;;2.35;1.90;;;26.60;64.60;;;;;;6212077;22;43842;-61
2022/08/12 13:50:31;;;;;;;3.83;2.20;;;26.60;64.50;;;;;;6209832;22;44107;-61
2022/08/12 13:53:00;;;;;;;3.05;2.08;;;26.70;64.70;;;;;;6212509;22;43319;-61
2022/08/12 13:55:50;;;;;;;2.75;2.00;;;26.70;64.70;;;;;;6211699;22;44751;-62
2022/08/12 13:58:29;;;;;;;3.00;2.28;;;26.70;64.70;;;;;;6211042;22;43675;-61
2022/08/12 14:01:04;;;;;;;3.33;2.25;;;26.70;64.60;;;;;;6211144;22;43283;-61
2022/08/12 14:03:32;;;;;;;2.40;2.20;;;26.80;64.70;;;;;;6212005;22;43387;-61
2022/08/12 14:06:19;;;;;;;2.75;1.73;;;26.80;64.60;;;;;;6211147;22;44904;-61
2022/08/12 14:08:50;;;;;;;2.30;2.08;;;26.80;64.60;;;;;;6211240;22;43302;-61
2022/08/12 14:11:18;;;;;;;2.78;2.03;;;26.80;64.60;;;;;;6183413;22;43217;-62
2022/08/12 14:13:51;;;;;;;2.08;1.90;;;26.80;64.50;;;;;;6185056;22;43383;-62
2022/08/12 14:16:37;;;;;;;2.30;2.10;;;26.80;64.40;;;;;;6211646;22;43777;-61
2022/08/12 14:19:18;;;;;;;2.50;2.10;;;26.90;64.40;;;;;;6210793;22;43845;-61
2022/08/12 14:21:52;;;;;;;2.20;2.00;;;26.90;64.50;;;;;;6210129;22;43320;-62
2022/08/12 14:24:35;;;;;;;1.90;1.80;;;26.90;64.50;;;;;;6211649;22;43411;-61
2022/08/12 14:27:08;;;;;;;2.03;1.90;;;26.90;64.40;;;;;;6211936;22;44960;-62
2022/08/12 14:29:40;;;;;;;2.25;2.05;;;26.90;65.00;;;;;;6212913;22;43950;-62
2022/08/12 14:32:33;;;;;;;;;;;26.90;64.60;;;;;;6212097;22;43244;-61
2022/08/12 14:35:08;;;;;;;2.33;2.13;;;27.00;64.50;;;;;;6213392;22;43233;-62
2022/08/12 14:37:39;;;;;;;2.25;2.05;;;27.00;64.50;;;;;;6212614;22;44752;-61
2022/08/12 14:40:28;;;;;;;1.90;1.80;;;27.00;64.50;;;;;;6210819;22;43268;-61
2022/08/12 14:42:57;;;;;;;2.50;1.58;;;27.00;64.40;;;;;;6213434;22;43234;-62
2022/08/12 14:45:25;;;;;;;3.50;1.98;;;27.00;64.40;;;;;;6212338;22;43269;-62
2022/08/12 14:48:18;;;;;;;2.47;2.28;;;27.00;65.40;;;;;;6212045;22;44729;-62
2022/08/12 14:50:51;;;;;;;1.80;1.70;;;27.10;65.00;;;;;;6211909;22;43898;-62
2022/08/12 14:53:41;;;;;;;2.45;1.80;;;27.10;64.60;;;;;;6209593;22;43299;-62
2022/08/12 14:56:28;;;;;;;2.22;1.75;;;27.10;64.60;;;;;;6211151;22;43214;-62
2022/08/12 15:02:22;;;;;;;2.05;1.85;;;27.10;64.50;;;;;;6212214;22;43213;-61
2022/08/12 15:04:57;;;;;;;2.43;2.23;;;27.10;64.40;;;;;;6211686;22;43300;-62
2022/08/12 15:07:27;;;;;;;2.40;2.20;;;27.20;64.60;;;;;;6185036;22;43285;-62
2022/08/12 15:10:12;;;;;;;2.97;2.00;;;27.20;64.50;;;;;;6212055;22;44726;-62
2022/08/12 15:12:39;;;;;;;2.10;1.83;;;27.20;65.10;;;;;;6212886;22;43885;-62
2022/08/12 15:15:07;;;;;;;2.20;2.00;;;27.20;64.40;;;;;;6210853;22;43259;-62
2022/08/12 15:17:37;;;;;;;2.70;2.20;;;27.20;64.40;;;;;;6213083;22;43312;-62
2022/08/12 15:20:06;;;;;;;2.22;2.03;;;27.20;64.40;;;;;;6212087;22;43752;-62
2022/08/12 15:22:55;;;;;;;3.45;1.90;;;27.30;64.40;;;;;;6212407;22;43639;-62
2022/08/12 15:25:25;;;;;;;3.22;1.83;;;27.30;64.40;;;;;;6211513;22;43722;-62